Terminal Aerodrome Forecast
Issued by NWS

Home | Current Version | Previous Version | Text Only | Print | Product List | Glossary On
Versions: 1 2 3 4 5 6 7 8 9 10 11 12 13 14 15
000
FTUS44 KJAN 192326
TAFHKS
TAF
KHKS 192326Z 2000/2024 VRB04KT P6SM VCSH SCT040 BKN060 BKN200
     FM200130 VRB03KT P6SM FEW040 SCT060 SCT250
     FM201100 00000KT 6SM BR FEW250
     FM201300 03005KT P6SM FEW025 SCT050 SCT250=

USA.gov is the U.S. government's official web portal to all federal, state and local government web resources and services.